sensor_id;sensor_type;location;lat;lon;timestamp;P1;durP1;ratioP1;P2;durP2;ratioP2
11877;SDS011;5998;42.676;23.268;2022-12-18T00:01:30;5.83;;;5.00;;
11877;SDS011;5998;42.676;23.268;2022-12-18T00:03:58;5.67;;;5.03;;
11877;SDS011;5998;42.676;23.268;2022-12-18T00:06:25;6.50;;;5.17;;
11877;SDS011;5998;42.676;23.268;2022-12-18T00:08:52;6.70;;;6.00;;
11877;SDS011;5998;42.676;23.268;2022-12-18T00:11:19;6.23;;;5.23;;
11877;SDS011;5998;42.676;23.268;2022-12-18T00:13:46;7.93;;;5.93;;
11877;SDS011;5998;42.676;23.268;2022-12-18T00:16:13;7.77;;;5.67;;
11877;SDS011;5998;42.676;23.268;2022-12-18T00:18:41;6.80;;;5.30;;
11877;SDS011;5998;42.676;23.268;2022-12-18T00:21:09;5.77;;;4.87;;
11877;SDS011;5998;42.676;23.268;2022-12-18T00:23:36;6.37;;;5.67;;
11877;SDS011;5998;42.676;23.268;2022-12-18T00:26:04;6.53;;;5.47;;
11877;SDS011;5998;42.676;23.268;2022-12-18T00:28:30;7.00;;;6.00;;
11877;SDS011;5998;42.676;23.268;2022-12-18T00:31:01;6.93;;;6.03;;
11877;SDS011;5998;42.676;23.268;2022-12-18T00:33:27;6.30;;;5.63;;
11877;SDS011;5998;42.676;23.268;2022-12-18T00:35:55;7.07;;;6.17;;
11877;SDS011;5998;42.676;23.268;2022-12-18T00:38:26;6.77;;;5.80;;
11877;SDS011;5998;42.676;23.268;2022-12-18T00:40:52;7.23;;;6.43;;
11877;SDS011;5998;42.676;23.268;2022-12-18T00:43:18;8.40;;;6.60;;
11877;SDS011;5998;42.676;23.268;2022-12-18T00:45:44;7.27;;;6.50;;
11877;SDS011;5998;42.676;23.268;2022-12-18T00:48:11;6.97;;;5.87;;
11877;SDS011;5998;42.676;23.268;2022-12-18T00:50:37;7.10;;;6.27;;
11877;SDS011;5998;42.676;23.268;2022-12-18T00:53:05;6.20;;;5.60;;
11877;SDS011;5998;42.676;23.268;2022-12-18T00:55:32;8.77;;;6.73;;
11877;SDS011;5998;42.676;23.268;2022-12-18T00:57:59;9.10;;;7.00;;
11877;SDS011;5998;42.676;23.268;2022-12-18T01:00:25;7.60;;;6.60;;
11877;SDS011;5998;42.676;23.268;2022-12-18T01:02:52;6.43;;;5.73;;
11877;SDS011;5998;42.676;23.268;2022-12-18T01:05:18;8.03;;;6.17;;
11877;SDS011;5998;42.676;23.268;2022-12-18T01:07:45;8.47;;;6.60;;
11877;SDS011;5998;42.676;23.268;2022-12-18T01:10:13;7.20;;;6.07;;
11877;SDS011;5998;42.676;23.268;2022-12-18T01:12:39;7.00;;;5.97;;
11877;SDS011;5998;42.676;23.268;2022-12-18T01:15:07;7.87;;;6.67;;
11877;SDS011;5998;42.676;23.268;2022-12-18T01:17:34;7.10;;;6.03;;
11877;SDS011;5998;42.676;23.268;2022-12-18T01:20:00;6.47;;;5.70;;
11877;SDS011;5998;42.676;23.268;2022-12-18T01:22:27;7.53;;;6.20;;
11877;SDS011;5998;42.676;23.268;2022-12-18T01:24:53;7.57;;;6.33;;
11877;SDS011;5998;42.676;23.268;2022-12-18T01:27:21;8.00;;;6.37;;
11877;SDS011;5998;42.676;23.268;2022-12-18T01:29:48;7.53;;;6.73;;
11877;SDS011;5998;42.676;23.268;2022-12-18T01:32:15;8.87;;;6.77;;
11877;SDS011;5998;42.676;23.268;2022-12-18T01:34:41;7.50;;;6.43;;
11877;SDS011;5998;42.676;23.268;2022-12-18T01:37:08;7.93;;;6.43;;
11877;SDS011;5998;42.676;23.268;2022-12-18T01:39:34;8.40;;;6.60;;
11877;SDS011;5998;42.676;23.268;2022-12-18T01:42:02;8.30;;;6.97;;
11877;SDS011;5998;42.676;23.268;2022-12-18T01:47:32;8.17;;;6.97;;
11877;SDS011;5998;42.676;23.268;2022-12-18T01:49:59;7.67;;;6.77;;
11877;SDS011;5998;42.676;23.268;2022-12-18T01:52:28;8.40;;;7.50;;
11877;SDS011;5998;42.676;23.268;2022-12-18T01:54:55;7.57;;;6.63;;
11877;SDS011;5998;42.676;23.268;2022-12-18T01:57:22;9.13;;;7.00;;
11877;SDS011;5998;42.676;23.268;2022-12-18T01:59:50;8.03;;;6.83;;
11877;SDS011;5998;42.676;23.268;2022-12-18T02:02:18;8.57;;;6.87;;
11877;SDS011;5998;42.676;23.268;2022-12-18T02:04:46;8.07;;;6.50;;
11877;SDS011;5998;42.676;23.268;2022-12-18T02:07:16;8.17;;;7.00;;
11877;SDS011;5998;42.676;23.268;2022-12-18T02:09:45;7.67;;;6.47;;
11877;SDS011;5998;42.676;23.268;2022-12-18T02:12:13;7.80;;;6.27;;
11877;SDS011;5998;42.676;23.268;2022-12-18T02:14:44;7.43;;;6.63;;
11877;SDS011;5998;42.676;23.268;2022-12-18T02:17:15;8.47;;;6.63;;
11877;SDS011;5998;42.676;23.268;2022-12-18T02:19:47;7.20;;;6.03;;
11877;SDS011;5998;42.676;23.268;2022-12-18T02:22:20;6.63;;;5.43;;
11877;SDS011;5998;42.676;23.268;2022-12-18T02:24:52;7.53;;;6.13;;
11877;SDS011;5998;42.676;23.268;2022-12-18T02:27:21;8.33;;;6.10;;
11877;SDS011;5998;42.676;23.268;2022-12-18T02:29:50;7.17;;;6.07;;
11877;SDS011;5998;42.676;23.268;2022-12-18T02:32:17;8.13;;;6.27;;
11877;SDS011;5998;42.676;23.268;2022-12-18T02:34:45;7.23;;;6.00;;
11877;SDS011;5998;42.676;23.268;2022-12-18T02:37:13;7.47;;;5.90;;
11877;SDS011;5998;42.676;23.268;2022-12-18T02:39:41;8.60;;;6.10;;
11877;SDS011;5998;42.676;23.268;2022-12-18T02:42:09;8.43;;;6.17;;
11877;SDS011;5998;42.676;23.268;2022-12-18T02:44:43;6.93;;;5.60;;
11877;SDS011;5998;42.676;23.268;2022-12-18T02:47:09;7.00;;;6.30;;
11877;SDS011;5998;42.676;23.268;2022-12-18T02:49:38;8.50;;;6.07;;
11877;SDS011;5998;42.676;23.268;2022-12-18T02:52:07;7.23;;;6.20;;
11877;SDS011;5998;42.676;23.268;2022-12-18T02:54:39;6.57;;;5.87;;
11877;SDS011;5998;42.676;23.268;2022-12-18T02:57:10;9.17;;;5.80;;
11877;SDS011;5998;42.676;23.268;2022-12-18T02:59:39;6.77;;;6.03;;
11877;SDS011;5998;42.676;23.268;2022-12-18T03:02:10;7.10;;;5.70;;
11877;SDS011;5998;42.676;23.268;2022-12-18T03:04:43;7.13;;;6.37;;
11877;SDS011;5998;42.676;23.268;2022-12-18T03:07:11;7.37;;;5.97;;
11877;SDS011;5998;42.676;23.268;2022-12-18T03:09:42;6.60;;;5.53;;
11877;SDS011;5998;42.676;23.268;2022-12-18T03:12:10;8.20;;;6.27;;
11877;SDS011;5998;42.676;23.268;2022-12-18T03:14:50;12.87;;;8.07;;
11877;SDS011;5998;42.676;23.268;2022-12-18T03:17:20;8.23;;;6.20;;
11877;SDS011;5998;42.676;23.268;2022-12-18T03:19:49;7.33;;;6.30;;
11877;SDS011;5998;42.676;23.268;2022-12-18T03:22:16;8.37;;;6.87;;
11877;SDS011;5998;42.676;23.268;2022-12-18T03:24:44;7.27;;;5.83;;
11877;SDS011;5998;42.676;23.268;2022-12-18T03:27:11;6.90;;;6.20;;
11877;SDS011;5998;42.676;23.268;2022-12-18T03:29:40;7.73;;;6.60;;
11877;SDS011;5998;42.676;23.268;2022-12-18T03:32:09;6.60;;;5.93;;
11877;SDS011;5998;42.676;23.268;2022-12-18T03:34:38;8.03;;;6.03;;
11877;SDS011;5998;42.676;23.268;2022-12-18T03:37:06;6.97;;;5.50;;
11877;SDS011;5998;42.676;23.268;2022-12-18T03:39:33;8.07;;;6.13;;
11877;SDS011;5998;42.676;23.268;2022-12-18T03:42:01;7.37;;;5.93;;
11877;SDS011;5998;42.676;23.268;2022-12-18T03:44:30;7.30;;;6.03;;
11877;SDS011;5998;42.676;23.268;2022-12-18T03:46:59;6.63;;;5.67;;
11877;SDS011;5998;42.676;23.268;2022-12-18T03:49:30;6.67;;;5.50;;
11877;SDS011;5998;42.676;23.268;2022-12-18T03:52:01;6.17;;;5.07;;
11877;SDS011;5998;42.676;23.268;2022-12-18T03:54:28;5.90;;;4.97;;
11877;SDS011;5998;42.676;23.268;2022-12-18T03:56:57;27.37;;;6.07;;
11877;SDS011;5998;42.676;23.268;2022-12-18T03:59:24;6.40;;;5.47;;
11877;SDS011;5998;42.676;23.268;2022-12-18T04:01:52;6.13;;;5.03;;
11877;SDS011;5998;42.676;23.268;2022-12-18T04:04:19;7.10;;;5.33;;
11877;SDS011;5998;42.676;23.268;2022-12-18T04:06:47;6.63;;;5.43;;
11877;SDS011;5998;42.676;23.268;2022-12-18T04:09:15;6.83;;;5.50;;
11877;SDS011;5998;42.676;23.268;2022-12-18T04:11:42;5.67;;;5.07;;
11877;SDS011;5998;42.676;23.268;2022-12-18T04:14:09;6.83;;;5.73;;
11877;SDS011;5998;42.676;23.268;2022-12-18T04:16:36;6.53;;;5.20;;
11877;SDS011;5998;42.676;23.268;2022-12-18T04:19:02;8.50;;;5.40;;
11877;SDS011;5998;42.676;23.268;2022-12-18T04:21:29;6.30;;;5.63;;
11877;SDS011;5998;42.676;23.268;2022-12-18T04:23:55;7.10;;;5.27;;
11877;SDS011;5998;42.676;23.268;2022-12-18T04:26:23;7.87;;;6.43;;
11877;SDS011;5998;42.676;23.268;2022-12-18T04:28:50;6.67;;;5.80;;
11877;SDS011;5998;42.676;23.268;2022-12-18T04:31:16;8.20;;;5.97;;
11877;SDS011;5998;42.676;23.268;2022-12-18T04:33:42;9.33;;;6.93;;
11877;SDS011;5998;42.676;23.268;2022-12-18T04:36:09;9.23;;;7.13;;
11877;SDS011;5998;42.676;23.268;2022-12-18T04:38:37;8.20;;;6.60;;
11877;SDS011;5998;42.676;23.268;2022-12-18T04:41:03;8.17;;;6.57;;
11877;SDS011;5998;42.676;23.268;2022-12-18T04:43:31;7.07;;;5.80;;
11877;SDS011;5998;42.676;23.268;2022-12-18T04:46:01;8.10;;;6.13;;
11877;SDS011;5998;42.676;23.268;2022-12-18T04:48:28;9.23;;;7.20;;
11877;SDS011;5998;42.676;23.268;2022-12-18T04:50:54;9.30;;;6.93;;
11877;SDS011;5998;42.676;23.268;2022-12-18T04:53:20;10.43;;;7.13;;
11877;SDS011;5998;42.676;23.268;2022-12-18T04:55:47;10.67;;;7.00;;
11877;SDS011;5998;42.676;23.268;2022-12-18T04:58:13;9.20;;;7.00;;
11877;SDS011;5998;42.676;23.268;2022-12-18T05:00:41;9.60;;;7.37;;
11877;SDS011;5998;42.676;23.268;2022-12-18T05:03:07;11.40;;;7.23;;
11877;SDS011;5998;42.676;23.268;2022-12-18T05:05:34;9.40;;;7.10;;
11877;SDS011;5998;42.676;23.268;2022-12-18T05:08:00;9.17;;;7.40;;
11877;SDS011;5998;42.676;23.268;2022-12-18T05:10:27;9.80;;;7.40;;
11877;SDS011;5998;42.676;23.268;2022-12-18T05:12:53;9.57;;;7.33;;
11877;SDS011;5998;42.676;23.268;2022-12-18T05:15:27;12.80;;;8.20;;
11877;SDS011;5998;42.676;23.268;2022-12-18T05:17:54;10.90;;;8.20;;
11877;SDS011;5998;42.676;23.268;2022-12-18T05:20:21;11.80;;;8.47;;
11877;SDS011;5998;42.676;23.268;2022-12-18T05:22:47;10.57;;;8.10;;
11877;SDS011;5998;42.676;23.268;2022-12-18T05:25:14;11.80;;;8.53;;
11877;SDS011;5998;42.676;23.268;2022-12-18T05:27:41;15.07;;;8.40;;
11877;SDS011;5998;42.676;23.268;2022-12-18T05:30:08;11.10;;;8.70;;
11877;SDS011;5998;42.676;23.268;2022-12-18T05:32:34;12.00;;;8.67;;
11877;SDS011;5998;42.676;23.268;2022-12-18T05:35:02;12.57;;;8.63;;
11877;SDS011;5998;42.676;23.268;2022-12-18T05:37:29;11.00;;;8.07;;
11877;SDS011;5998;42.676;23.268;2022-12-18T05:39:55;9.40;;;7.40;;
11877;SDS011;5998;42.676;23.268;2022-12-18T05:42:21;9.80;;;7.50;;
11877;SDS011;5998;42.676;23.268;2022-12-18T05:44:48;12.17;;;8.47;;
11877;SDS011;5998;42.676;23.268;2022-12-18T05:47:14;11.10;;;8.10;;
11877;SDS011;5998;42.676;23.268;2022-12-18T05:49:41;13.23;;;8.97;;
11877;SDS011;5998;42.676;23.268;2022-12-18T05:52:09;10.57;;;8.83;;
11877;SDS011;5998;42.676;23.268;2022-12-18T05:54:35;14.10;;;9.90;;
11877;SDS011;5998;42.676;23.268;2022-12-18T05:57:01;13.03;;;9.67;;
11877;SDS011;5998;42.676;23.268;2022-12-18T05:59:28;13.00;;;9.77;;
11877;SDS011;5998;42.676;23.268;2022-12-18T06:01:54;15.63;;;10.40;;
11877;SDS011;5998;42.676;23.268;2022-12-18T06:04:21;15.60;;;10.10;;
11877;SDS011;5998;42.676;23.268;2022-12-18T06:06:48;14.83;;;10.53;;
11877;SDS011;5998;42.676;23.268;2022-12-18T06:09:15;12.27;;;8.67;;
11877;SDS011;5998;42.676;23.268;2022-12-18T06:11:42;11.60;;;9.00;;
11877;SDS011;5998;42.676;23.268;2022-12-18T06:14:08;12.00;;;9.07;;
11877;SDS011;5998;42.676;23.268;2022-12-18T06:16:35;12.53;;;9.47;;
11877;SDS011;5998;42.676;23.268;2022-12-18T06:19:02;12.27;;;8.60;;
11877;SDS011;5998;42.676;23.268;2022-12-18T06:21:29;12.47;;;8.60;;
11877;SDS011;5998;42.676;23.268;2022-12-18T06:23:56;12.33;;;8.83;;
11877;SDS011;5998;42.676;23.268;2022-12-18T06:26:24;11.47;;;8.23;;
11877;SDS011;5998;42.676;23.268;2022-12-18T06:28:50;13.17;;;9.97;;
11877;SDS011;5998;42.676;23.268;2022-12-18T06:31:17;13.63;;;9.17;;
11877;SDS011;5998;42.676;23.268;2022-12-18T06:33:43;13.03;;;9.23;;
11877;SDS011;5998;42.676;23.268;2022-12-18T06:36:10;11.87;;;8.77;;
11877;SDS011;5998;42.676;23.268;2022-12-18T06:38:38;13.37;;;10.37;;
11877;SDS011;5998;42.676;23.268;2022-12-18T06:41:06;13.90;;;9.63;;
11877;SDS011;5998;42.676;23.268;2022-12-18T06:43:33;12.77;;;9.63;;
11877;SDS011;5998;42.676;23.268;2022-12-18T06:46:00;13.17;;;10.13;;
11877;SDS011;5998;42.676;23.268;2022-12-18T06:48:27;11.57;;;9.40;;
11877;SDS011;5998;42.676;23.268;2022-12-18T06:50:53;14.17;;;10.30;;
11877;SDS011;5998;42.676;23.268;2022-12-18T06:53:19;13.10;;;9.43;;
11877;SDS011;5998;42.676;23.268;2022-12-18T06:55:46;12.33;;;9.63;;
11877;SDS011;5998;42.676;23.268;2022-12-18T06:58:12;14.20;;;9.83;;
11877;SDS011;5998;42.676;23.268;2022-12-18T07:00:40;14.33;;;10.50;;
11877;SDS011;5998;42.676;23.268;2022-12-18T07:03:07;12.97;;;9.47;;
11877;SDS011;5998;42.676;23.268;2022-12-18T07:05:33;13.93;;;9.10;;
11877;SDS011;5998;42.676;23.268;2022-12-18T07:08:00;13.40;;;9.70;;
11877;SDS011;5998;42.676;23.268;2022-12-18T07:10:26;11.40;;;8.37;;
11877;SDS011;5998;42.676;23.268;2022-12-18T07:12:53;14.53;;;10.20;;
11877;SDS011;5998;42.676;23.268;2022-12-18T07:15:19;12.67;;;9.43;;
11877;SDS011;5998;42.676;23.268;2022-12-18T07:17:47;15.07;;;10.00;;
11877;SDS011;5998;42.676;23.268;2022-12-18T07:20:13;13.07;;;9.17;;
11877;SDS011;5998;42.676;23.268;2022-12-18T07:22:40;12.40;;;9.20;;
11877;SDS011;5998;42.676;23.268;2022-12-18T07:25:07;11.20;;;8.97;;
11877;SDS011;5998;42.676;23.268;2022-12-18T07:27:33;12.73;;;9.27;;
11877;SDS011;5998;42.676;23.268;2022-12-18T07:30:00;16.20;;;10.50;;
11877;SDS011;5998;42.676;23.268;2022-12-18T07:32:26;14.07;;;10.33;;
11877;SDS011;5998;42.676;23.268;2022-12-18T07:34:54;14.00;;;9.70;;
11877;SDS011;5998;42.676;23.268;2022-12-18T07:37:20;13.43;;;9.90;;
11877;SDS011;5998;42.676;23.268;2022-12-18T07:39:47;13.73;;;9.93;;
11877;SDS011;5998;42.676;23.268;2022-12-18T07:42:13;15.27;;;9.63;;
11877;SDS011;5998;42.676;23.268;2022-12-18T07:44:58;13.73;;;9.73;;
11877;SDS011;5998;42.676;23.268;2022-12-18T07:47:24;15.10;;;10.57;;
11877;SDS011;5998;42.676;23.268;2022-12-18T07:49:51;14.30;;;10.43;;
11877;SDS011;5998;42.676;23.268;2022-12-18T07:52:19;17.37;;;10.97;;
11877;SDS011;5998;42.676;23.268;2022-12-18T07:54:45;13.07;;;10.47;;
11877;SDS011;5998;42.676;23.268;2022-12-18T07:57:13;15.53;;;11.10;;
11877;SDS011;5998;42.676;23.268;2022-12-18T07:59:40;16.23;;;11.13;;
11877;SDS011;5998;42.676;23.268;2022-12-18T08:02:06;18.73;;;12.03;;
11877;SDS011;5998;42.676;23.268;2022-12-18T08:04:34;17.43;;;11.30;;
11877;SDS011;5998;42.676;23.268;2022-12-18T08:07:01;15.17;;;10.63;;
11877;SDS011;5998;42.676;23.268;2022-12-18T08:09:29;16.30;;;10.93;;
11877;SDS011;5998;42.676;23.268;2022-12-18T08:11:55;18.13;;;12.23;;
11877;SDS011;5998;42.676;23.268;2022-12-18T08:14:22;17.33;;;11.70;;
11877;SDS011;5998;42.676;23.268;2022-12-18T08:16:48;19.07;;;12.47;;
11877;SDS011;5998;42.676;23.268;2022-12-18T08:19:15;16.87;;;12.07;;
11877;SDS011;5998;42.676;23.268;2022-12-18T08:21:41;19.30;;;12.67;;
11877;SDS011;5998;42.676;23.268;2022-12-18T08:24:08;19.37;;;13.60;;
11877;SDS011;5998;42.676;23.268;2022-12-18T08:26:36;25.97;;;13.27;;
11877;SDS011;5998;42.676;23.268;2022-12-18T08:29:02;29.27;;;14.13;;
11877;SDS011;5998;42.676;23.268;2022-12-18T08:31:29;28.90;;;13.77;;
11877;SDS011;5998;42.676;23.268;2022-12-18T08:33:56;21.10;;;13.63;;
11877;SDS011;5998;42.676;23.268;2022-12-18T08:36:23;21.40;;;13.43;;
11877;SDS011;5998;42.676;23.268;2022-12-18T08:38:49;19.63;;;13.97;;
11877;SDS011;5998;42.676;23.268;2022-12-18T08:41:16;18.77;;;12.53;;
11877;SDS011;5998;42.676;23.268;2022-12-18T08:43:44;21.47;;;13.90;;
11877;SDS011;5998;42.676;23.268;2022-12-18T08:46:31;18.27;;;12.50;;
11877;SDS011;5998;42.676;23.268;2022-12-18T08:48:58;18.27;;;12.50;;
11877;SDS011;5998;42.676;23.268;2022-12-18T08:51:24;17.57;;;12.43;;
11877;SDS011;5998;42.676;23.268;2022-12-18T08:53:51;17.07;;;11.90;;
11877;SDS011;5998;42.676;23.268;2022-12-18T08:56:17;22.10;;;14.13;;
11877;SDS011;5998;42.676;23.268;2022-12-18T08:58:45;17.97;;;13.10;;
11877;SDS011;5998;42.676;23.268;2022-12-18T09:01:12;18.17;;;13.00;;
11877;SDS011;5998;42.676;23.268;2022-12-18T09:03:39;20.83;;;14.27;;
11877;SDS011;5998;42.676;23.268;2022-12-18T09:06:08;20.30;;;13.50;;
11877;SDS011;5998;42.676;23.268;2022-12-18T09:08:35;19.20;;;13.13;;
11877;SDS011;5998;42.676;23.268;2022-12-18T09:11:01;20.37;;;13.20;;
11877;SDS011;5998;42.676;23.268;2022-12-18T09:13:28;20.90;;;13.53;;
11877;SDS011;5998;42.676;23.268;2022-12-18T09:15:56;17.70;;;11.77;;
11877;SDS011;5998;42.676;23.268;2022-12-18T09:18:23;19.87;;;13.77;;
11877;SDS011;5998;42.676;23.268;2022-12-18T09:20:49;20.00;;;13.60;;
11877;SDS011;5998;42.676;23.268;2022-12-18T09:23:17;20.87;;;13.07;;
11877;SDS011;5998;42.676;23.268;2022-12-18T09:25:44;19.10;;;13.43;;
11877;SDS011;5998;42.676;23.268;2022-12-18T09:28:11;18.17;;;12.87;;
11877;SDS011;5998;42.676;23.268;2022-12-18T09:30:38;18.80;;;12.03;;
11877;SDS011;5998;42.676;23.268;2022-12-18T09:33:06;17.80;;;12.23;;
11877;SDS011;5998;42.676;23.268;2022-12-18T09:35:32;19.00;;;12.70;;
11877;SDS011;5998;42.676;23.268;2022-12-18T09:37:59;17.90;;;11.20;;
11877;SDS011;5998;42.676;23.268;2022-12-18T09:40:26;19.63;;;12.27;;
11877;SDS011;5998;42.676;23.268;2022-12-18T09:42:55;18.10;;;11.83;;
11877;SDS011;5998;42.676;23.268;2022-12-18T09:45:23;19.23;;;12.23;;
11877;SDS011;5998;42.676;23.268;2022-12-18T09:47:50;19.70;;;12.13;;
11877;SDS011;5998;42.676;23.268;2022-12-18T09:50:23;17.80;;;11.90;;
11877;SDS011;5998;42.676;23.268;2022-12-18T09:52:50;20.43;;;11.00;;
11877;SDS011;5998;42.676;23.268;2022-12-18T09:55:20;18.33;;;11.63;;
11877;SDS011;5998;42.676;23.268;2022-12-18T09:57:49;18.13;;;11.50;;
11877;SDS011;5998;42.676;23.268;2022-12-18T10:00:17;17.97;;;11.13;;
11877;SDS011;5998;42.676;23.268;2022-12-18T10:02:45;20.93;;;12.60;;
11877;SDS011;5998;42.676;23.268;2022-12-18T10:05:12;17.93;;;10.40;;
11877;SDS011;5998;42.676;23.268;2022-12-18T10:07:53;18.33;;;10.83;;
11877;SDS011;5998;42.676;23.268;2022-12-18T10:10:23;16.37;;;10.57;;
11877;SDS011;5998;42.676;23.268;2022-12-18T10:12:54;16.27;;;11.37;;
11877;SDS011;5998;42.676;23.268;2022-12-18T10:15:24;15.97;;;10.77;;
11877;SDS011;5998;42.676;23.268;2022-12-18T10:17:54;14.27;;;9.43;;
11877;SDS011;5998;42.676;23.268;2022-12-18T10:20:23;15.93;;;10.80;;
11877;SDS011;5998;42.676;23.268;2022-12-18T10:22:55;15.47;;;10.50;;
11877;SDS011;5998;42.676;23.268;2022-12-18T10:25:24;15.87;;;11.07;;
11877;SDS011;5998;42.676;23.268;2022-12-18T10:27:52;17.33;;;10.77;;
11877;SDS011;5998;42.676;23.268;2022-12-18T10:30:21;14.47;;;10.07;;
11877;SDS011;5998;42.676;23.268;2022-12-18T10:32:47;15.73;;;10.17;;
11877;SDS011;5998;42.676;23.268;2022-12-18T10:35:16;15.93;;;10.50;;
11877;SDS011;5998;42.676;23.268;2022-12-18T10:40:47;17.13;;;10.23;;
11877;SDS011;5998;42.676;23.268;2022-12-18T10:43:14;14.57;;;10.17;;
11877;SDS011;5998;42.676;23.268;2022-12-18T10:45:40;20.43;;;12.13;;
11877;SDS011;5998;42.676;23.268;2022-12-18T10:48:17;12.20;;;7.87;;
11877;SDS011;5998;42.676;23.268;2022-12-18T10:50:45;17.87;;;11.60;;
11877;SDS011;5998;42.676;23.268;2022-12-18T10:53:13;15.63;;;10.83;;
11877;SDS011;5998;42.676;23.268;2022-12-18T10:55:43;15.60;;;10.13;;
11877;SDS011;5998;42.676;23.268;2022-12-18T10:58:16;14.57;;;9.60;;
11877;SDS011;5998;42.676;23.268;2022-12-18T11:00:45;14.17;;;9.63;;
11877;SDS011;5998;42.676;23.268;2022-12-18T11:03:29;11.53;;;8.90;;
11877;SDS011;5998;42.676;23.268;2022-12-18T11:06:01;18.83;;;11.33;;
11877;SDS011;5998;42.676;23.268;2022-12-18T11:08:28;15.27;;;10.83;;
11877;SDS011;5998;42.676;23.268;2022-12-18T11:10:55;14.40;;;9.77;;
11877;SDS011;5998;42.676;23.268;2022-12-18T11:13:22;13.57;;;8.80;;
11877;SDS011;5998;42.676;23.268;2022-12-18T11:15:50;12.43;;;8.93;;
11877;SDS011;5998;42.676;23.268;2022-12-18T11:18:17;13.07;;;9.33;;
11877;SDS011;5998;42.676;23.268;2022-12-18T11:20:49;14.03;;;8.80;;
11877;SDS011;5998;42.676;23.268;2022-12-18T11:23:16;13.70;;;9.30;;
11877;SDS011;5998;42.676;23.268;2022-12-18T11:25:50;18.73;;;9.93;;
11877;SDS011;5998;42.676;23.268;2022-12-18T11:28:26;13.67;;;9.40;;
11877;SDS011;5998;42.676;23.268;2022-12-18T11:31:08;14.63;;;9.00;;
11877;SDS011;5998;42.676;23.268;2022-12-18T11:33:35;12.97;;;8.70;;
11877;SDS011;5998;42.676;23.268;2022-12-18T11:36:03;14.03;;;9.20;;
11877;SDS011;5998;42.676;23.268;2022-12-18T11:38:31;15.27;;;9.03;;
11877;SDS011;5998;42.676;23.268;2022-12-18T11:40:59;12.73;;;8.63;;
11877;SDS011;5998;42.676;23.268;2022-12-18T11:43:28;14.03;;;8.83;;
11877;SDS011;5998;42.676;23.268;2022-12-18T11:45:57;12.33;;;8.17;;
11877;SDS011;5998;42.676;23.268;2022-12-18T11:48:26;11.00;;;8.20;;
11877;SDS011;5998;42.676;23.268;2022-12-18T11:50:54;12.20;;;8.57;;
11877;SDS011;5998;42.676;23.268;2022-12-18T11:53:21;13.20;;;9.10;;
11877;SDS011;5998;42.676;23.268;2022-12-18T11:55:54;17.40;;;10.27;;
11877;SDS011;5998;42.676;23.268;2022-12-18T11:58:38;13.73;;;9.40;;
11877;SDS011;5998;42.676;23.268;2022-12-18T12:01:07;13.10;;;9.30;;
11877;SDS011;5998;42.676;23.268;2022-12-18T12:03:44;13.53;;;8.70;;
11877;SDS011;5998;42.676;23.268;2022-12-18T12:06:15;14.27;;;9.73;;
11877;SDS011;5998;42.676;23.268;2022-12-18T12:08:48;14.37;;;9.63;;
11877;SDS011;5998;42.676;23.268;2022-12-18T12:11:18;16.77;;;10.73;;
11877;SDS011;5998;42.676;23.268;2022-12-18T12:14:01;16.53;;;10.63;;
11877;SDS011;5998;42.676;23.268;2022-12-18T12:16:31;14.53;;;10.07;;
11877;SDS011;5998;42.676;23.268;2022-12-18T12:19:05;15.80;;;11.07;;
11877;SDS011;5998;42.676;23.268;2022-12-18T12:21:35;14.67;;;10.33;;
11877;SDS011;5998;42.676;23.268;2022-12-18T12:24:03;15.97;;;10.30;;
11877;SDS011;5998;42.676;23.268;2022-12-18T12:26:33;14.27;;;10.03;;
11877;SDS011;5998;42.676;23.268;2022-12-18T12:29:04;15.23;;;9.87;;
11877;SDS011;5998;42.676;23.268;2022-12-18T12:31:37;14.73;;;10.30;;
11877;SDS011;5998;42.676;23.268;2022-12-18T12:34:07;15.67;;;11.23;;
11877;SDS011;5998;42.676;23.268;2022-12-18T12:36:36;14.07;;;9.73;;
11877;SDS011;5998;42.676;23.268;2022-12-18T12:39:06;16.80;;;11.53;;
11877;SDS011;5998;42.676;23.268;2022-12-18T12:41:33;16.43;;;11.47;;
11877;SDS011;5998;42.676;23.268;2022-12-18T12:44:23;15.57;;;10.23;;
11877;SDS011;5998;42.676;23.268;2022-12-18T12:46:52;18.43;;;11.07;;
11877;SDS011;5998;42.676;23.268;2022-12-18T12:49:21;14.70;;;10.50;;
11877;SDS011;5998;42.676;23.268;2022-12-18T12:51:49;18.63;;;11.70;;
11877;SDS011;5998;42.676;23.268;2022-12-18T12:54:20;16.23;;;11.73;;
11877;SDS011;5998;42.676;23.268;2022-12-18T12:56:48;17.33;;;11.50;;
11877;SDS011;5998;42.676;23.268;2022-12-18T12:59:19;16.33;;;10.90;;
11877;SDS011;5998;42.676;23.268;2022-12-18T13:01:52;16.90;;;11.17;;
11877;SDS011;5998;42.676;23.268;2022-12-18T13:04:21;14.50;;;10.93;;
11877;SDS011;5998;42.676;23.268;2022-12-18T13:06:51;16.50;;;11.50;;
11877;SDS011;5998;42.676;23.268;2022-12-18T13:09:19;17.20;;;10.77;;
11877;SDS011;5998;42.676;23.268;2022-12-18T13:11:46;15.63;;;10.03;;
11877;SDS011;5998;42.676;23.268;2022-12-18T13:14:31;14.77;;;11.10;;
11877;SDS011;5998;42.676;23.268;2022-12-18T13:20:04;16.60;;;11.43;;
11877;SDS011;5998;42.676;23.268;2022-12-18T13:22:31;14.30;;;10.47;;
11877;SDS011;5998;42.676;23.268;2022-12-18T13:24:59;16.27;;;10.70;;
11877;SDS011;5998;42.676;23.268;2022-12-18T13:35:52;18.57;;;11.00;;
11877;SDS011;5998;42.676;23.268;2022-12-18T13:38:20;17.27;;;10.80;;
11877;SDS011;5998;42.676;23.268;2022-12-18T13:40:56;16.57;;;10.97;;
11877;SDS011;5998;42.676;23.268;2022-12-18T13:43:24;18.77;;;11.67;;
11877;SDS011;5998;42.676;23.268;2022-12-18T13:45:59;18.13;;;11.80;;
11877;SDS011;5998;42.676;23.268;2022-12-18T13:48:26;16.03;;;11.40;;
11877;SDS011;5998;42.676;23.268;2022-12-18T13:50:57;15.70;;;10.23;;
11877;SDS011;5998;42.676;23.268;2022-12-18T13:53:26;17.07;;;9.93;;
11877;SDS011;5998;42.676;23.268;2022-12-18T13:55:52;15.97;;;11.03;;
11877;SDS011;5998;42.676;23.268;2022-12-18T13:58:19;15.27;;;10.47;;
11877;SDS011;5998;42.676;23.268;2022-12-18T14:00:45;13.63;;;10.33;;
11877;SDS011;5998;42.676;23.268;2022-12-18T14:03:20;14.10;;;10.03;;
11877;SDS011;5998;42.676;23.268;2022-12-18T14:05:50;15.27;;;10.97;;
11877;SDS011;5998;42.676;23.268;2022-12-18T14:08:19;15.50;;;9.67;;
11877;SDS011;5998;42.676;23.268;2022-12-18T14:10:47;14.73;;;9.63;;
11877;SDS011;5998;42.676;23.268;2022-12-18T14:13:15;14.33;;;9.80;;
11877;SDS011;5998;42.676;23.268;2022-12-18T14:15:45;13.87;;;9.00;;
11877;SDS011;5998;42.676;23.268;2022-12-18T14:18:15;12.37;;;9.10;;
11877;SDS011;5998;42.676;23.268;2022-12-18T14:20:46;15.47;;;10.40;;
11877;SDS011;5998;42.676;23.268;2022-12-18T14:23:32;12.97;;;9.17;;
11877;SDS011;5998;42.676;23.268;2022-12-18T14:25:59;15.07;;;10.07;;
11877;SDS011;5998;42.676;23.268;2022-12-18T14:28:26;16.37;;;10.20;;
11877;SDS011;5998;42.676;23.268;2022-12-18T14:30:52;13.57;;;9.43;;
11877;SDS011;5998;42.676;23.268;2022-12-18T14:33:21;14.13;;;9.40;;
11877;SDS011;5998;42.676;23.268;2022-12-18T14:35:53;17.13;;;11.17;;
11877;SDS011;5998;42.676;23.268;2022-12-18T14:38:21;15.77;;;9.03;;
11877;SDS011;5998;42.676;23.268;2022-12-18T14:40:52;16.90;;;11.00;;
11877;SDS011;5998;42.676;23.268;2022-12-18T14:43:19;19.17;;;11.67;;
11877;SDS011;5998;42.676;23.268;2022-12-18T14:45:46;17.17;;;11.13;;
11877;SDS011;5998;42.676;23.268;2022-12-18T14:48:15;18.90;;;11.83;;
11877;SDS011;5998;42.676;23.268;2022-12-18T14:50:42;16.53;;;11.20;;
11877;SDS011;5998;42.676;23.268;2022-12-18T14:53:18;20.00;;;11.70;;
11877;SDS011;5998;42.676;23.268;2022-12-18T14:55:44;15.90;;;9.70;;
11877;SDS011;5998;42.676;23.268;2022-12-18T14:58:13;13.30;;;9.60;;